createdAt,value
2022-12-08T00:01:51.597Z,20.80
2022-12-08T00:03:54.401Z,18.40
2022-12-08T00:06:14.506Z,18.80
2022-12-08T00:08:35.331Z,26.42
2022-12-08T00:10:52.303Z,19.30
2022-12-08T00:12:54.435Z,20.02
2022-12-08T00:14:56.299Z,18.48
2022-12-08T00:16:58.944Z,18.75
2022-12-08T00:19:00.927Z,18.85
2022-12-08T00:21:03.486Z,14.15
2022-12-08T00:25:07.679Z,12.77
2022-12-08T00:27:11.338Z,14.98
2022-12-08T00:29:17.371Z,16.02
2022-12-08T00:31:19.909Z,17.00
2022-12-08T00:33:21.799Z,11.53
2022-12-08T00:35:23.935Z,10.40
2022-12-08T00:37:25.753Z,13.40
2022-12-08T00:39:27.738Z,10.98
2022-12-08T00:41:48.627Z,11.35
2022-12-08T00:43:50.405Z,8.27
2022-12-08T00:45:52.353Z,9.18
2022-12-08T00:47:54.527Z,8.57
2022-12-08T00:49:56.306Z,7.60
2022-12-08T00:51:58.133Z,8.73
2022-12-08T00:54:00.323Z,8.35
2022-12-08T00:56:02.086Z,7.13
2022-12-08T00:58:04.019Z,8.63
2022-12-08T01:00:07.022Z,13.82
2022-12-08T01:02:09.518Z,13.10
2022-12-08T01:04:15.660Z,7.10
2022-12-08T01:06:18.058Z,9.15
2022-12-08T01:08:19.963Z,10.30
2022-12-08T01:10:21.818Z,8.18
2022-12-08T01:12:24.104Z,7.97
2022-12-08T01:14:26.192Z,8.57
2022-12-08T01:16:31.567Z,11.35
2022-12-08T01:18:34.871Z,9.13
2022-12-08T01:22:38.315Z,12.85
2022-12-08T01:24:40.477Z,10.40
2022-12-08T01:26:42.753Z,9.45
2022-12-08T01:28:45.763Z,7.85
2022-12-08T01:30:47.957Z,8.25
2022-12-08T01:32:49.766Z,7.75
2022-12-08T01:34:51.566Z,8.88
2022-12-08T01:36:53.729Z,7.90
2022-12-08T01:38:58.377Z,8.43
2022-12-08T01:41:00.152Z,8.68
2022-12-08T01:43:02.325Z,10.93
2022-12-08T01:45:17.889Z,9.70
2022-12-08T01:47:20.195Z,10.43
2022-12-08T01:49:28.392Z,11.30
2022-12-08T01:51:35.070Z,8.75
2022-12-08T01:53:37.003Z,8.55
2022-12-08T01:55:43.834Z,8.60
2022-12-08T01:57:53.732Z,7.63
2022-12-08T02:00:08.687Z,9.15
2022-12-08T02:02:12.217Z,8.88
2022-12-08T02:04:14.003Z,11.18
2022-12-08T02:06:17.590Z,8.18
2022-12-08T02:08:20.032Z,8.07
2022-12-08T02:10:24.262Z,6.30
2022-12-08T02:12:26.071Z,8.85
2022-12-08T02:14:28.283Z,10.95
2022-12-08T02:17:00.431Z,13.90
2022-12-08T02:19:36.678Z,8.18
2022-12-08T02:21:53.299Z,9.25
2022-12-08T02:24:32.882Z,6.97
2022-12-08T02:26:49.798Z,6.88
2022-12-08T02:28:57.582Z,8.77
2022-12-08T02:31:31.562Z,8.13
2022-12-08T02:33:55.438Z,8.80
2022-12-08T02:38:27.678Z,10.80
2022-12-08T02:40:57.933Z,8.38
2022-12-08T02:43:02.751Z,8.75
2022-12-08T02:45:17.571Z,10.15
2022-12-08T02:47:22.121Z,11.73
2022-12-08T02:49:32.119Z,10.80
2022-12-08T02:51:34.433Z,6.82
2022-12-08T02:53:36.952Z,8.80
2022-12-08T02:56:17.631Z,10.55
2022-12-08T02:58:41.898Z,11.77
2022-12-08T03:01:02.944Z,10.15
2022-12-08T03:03:35.065Z,9.90
2022-12-08T03:05:45.922Z,8.02
2022-12-08T03:07:55.183Z,7.57
2022-12-08T03:10:13.812Z,8.15
2022-12-08T03:12:43.748Z,13.50
2022-12-08T03:14:50.502Z,8.05
2022-12-08T03:16:56.606Z,11.65
2022-12-08T03:19:21.099Z,10.50
2022-12-08T03:21:23.280Z,10.25
2022-12-08T03:23:26.576Z,10.45
2022-12-08T03:25:33.950Z,9.65
2022-12-08T03:27:36.222Z,9.07
2022-12-08T03:29:38.193Z,11.60
2022-12-08T03:31:45.338Z,9.77
2022-12-08T03:33:52.077Z,10.35
2022-12-08T03:35:55.574Z,11.27
2022-12-08T03:38:09.257Z,9.55
2022-12-08T03:40:15.283Z,10.02
2022-12-08T03:42:17.036Z,10.38
2022-12-08T03:44:18.937Z,10.18
2022-12-08T03:50:25.834Z,10.90
2022-12-08T03:52:28.094Z,12.65
2022-12-08T03:54:29.955Z,17.63
2022-12-08T03:56:37.222Z,14.10
2022-12-08T03:58:39.325Z,13.57
2022-12-08T04:00:41.294Z,13.02
2022-12-08T04:02:43.112Z,17.73
2022-12-08T04:04:45.230Z,14.10
2022-12-08T04:06:47.314Z,15.25
2022-12-08T04:08:50.177Z,13.23
2022-12-08T04:10:52.303Z,15.43
2022-12-08T04:12:54.143Z,18.45
2022-12-08T04:14:55.894Z,13.73
2022-12-08T04:16:58.071Z,13.43
2022-12-08T04:19:00.001Z,13.43
2022-12-08T04:21:02.165Z,14.98
2022-12-08T04:23:04.320Z,13.95
2022-12-08T04:25:06.875Z,17.55
2022-12-08T04:27:08.615Z,13.95
2022-12-08T04:29:10.731Z,16.55
2022-12-08T04:31:13.032Z,20.88
2022-12-08T04:33:14.979Z,21.98
2022-12-08T04:35:17.254Z,16.25
2022-12-08T04:37:19.157Z,12.77
2022-12-08T04:39:20.910Z,14.70
2022-12-08T04:41:23.075Z,18.23
2022-12-08T04:43:24.945Z,18.00
2022-12-08T04:45:26.696Z,15.25
2022-12-08T04:47:28.834Z,17.25
2022-12-08T04:49:30.610Z,18.33
2022-12-08T04:51:32.481Z,17.52
2022-12-08T04:53:34.714Z,16.60
2022-12-08T04:55:44.836Z,17.13
2022-12-08T04:57:46.841Z,17.83
2022-12-08T04:59:49.065Z,16.67
2022-12-08T05:01:50.931Z,19.58
2022-12-08T05:03:52.695Z,17.25
2022-12-08T05:05:54.913Z,21.45
2022-12-08T05:07:56.732Z,17.63
2022-12-08T05:09:58.625Z,21.13
2022-12-08T05:12:00.772Z,18.17
2022-12-08T05:14:02.542Z,16.55
2022-12-08T05:16:07.344Z,21.42
2022-12-08T05:18:09.591Z,20.80
2022-12-08T05:20:12.087Z,18.25
2022-12-08T05:22:13.882Z,18.83
2022-12-08T05:24:16.170Z,19.60
2022-12-08T05:26:17.923Z,19.65
2022-12-08T05:28:40.701Z,18.98
2022-12-08T05:30:42.762Z,21.50
2022-12-08T05:32:44.556Z,17.98
2022-12-08T05:34:46.667Z,17.63
2022-12-08T05:36:48.620Z,20.65
2022-12-08T05:38:50.386Z,19.00
2022-12-08T05:40:52.649Z,22.90
2022-12-08T05:42:54.471Z,21.98
2022-12-08T05:44:56.387Z,19.60
2022-12-08T05:46:58.561Z,22.45
2022-12-08T05:49:01.663Z,21.95
2022-12-08T05:51:03.808Z,23.60
2022-12-08T05:53:05.942Z,21.05
2022-12-08T05:55:08.239Z,24.40
2022-12-08T05:57:10.050Z,18.67
2022-12-08T05:59:12.165Z,21.10
2022-12-08T06:01:28.530Z,24.55
2022-12-08T06:03:30.387Z,17.50
2022-12-08T06:05:34.017Z,19.00
2022-12-08T06:07:35.839Z,22.10
2022-12-08T06:09:37.643Z,24.45
2022-12-08T06:11:39.775Z,22.95
2022-12-08T06:13:41.574Z,24.58
2022-12-08T06:15:43.389Z,24.05
2022-12-08T06:17:45.691Z,22.15
2022-12-08T06:19:47.488Z,25.05
2022-12-08T06:21:49.342Z,24.05
2022-12-08T06:23:53.289Z,21.30
2022-12-08T06:25:55.043Z,18.48
2022-12-08T06:27:56.874Z,20.15
2022-12-08T06:29:59.151Z,21.73
2022-12-08T06:32:00.981Z,22.67
2022-12-08T06:34:03.227Z,16.35
2022-12-08T06:36:06.750Z,18.02
2022-12-08T06:38:08.697Z,19.77
2022-12-08T06:40:11.177Z,25.58
2022-12-08T06:42:31.269Z,19.45
2022-12-08T06:44:33.521Z,25.85
2022-12-08T06:46:35.420Z,25.15
2022-12-08T06:48:37.698Z,25.85
2022-12-08T06:50:39.507Z,25.73
2022-12-08T06:52:51.563Z,25.88
2022-12-08T06:55:00.578Z,22.88
2022-12-08T06:57:02.415Z,19.20
2022-12-08T06:59:04.804Z,19.98
2022-12-08T07:01:08.414Z,20.23
2022-12-08T07:03:11.136Z,19.88
2022-12-08T07:05:13.269Z,19.77
2022-12-08T07:07:15.050Z,22.15
2022-12-08T07:09:16.843Z,18.50
2022-12-08T07:11:21.951Z,16.67
2022-12-08T07:13:24.310Z,22.52
2022-12-08T07:15:27.378Z,20.65
2022-12-08T07:17:29.672Z,20.10
2022-12-08T07:19:31.552Z,23.95
2022-12-08T07:21:33.870Z,23.30
2022-12-08T07:23:36.448Z,19.58
2022-12-08T07:25:38.302Z,22.23
2022-12-08T07:27:42.032Z,20.73
2022-12-08T07:29:43.794Z,22.42
2022-12-08T07:31:45.928Z,26.25
2022-12-08T07:33:48.363Z,26.50
2022-12-08T07:36:01.776Z,20.88
2022-12-08T07:38:05.849Z,23.33
2022-12-08T07:40:09.458Z,20.45
2022-12-08T07:42:11.573Z,20.80
2022-12-08T07:44:13.489Z,21.02
2022-12-08T07:46:18.389Z,17.35
2022-12-08T07:48:20.884Z,19.52
2022-12-08T07:50:22.712Z,20.23
2022-12-08T07:52:24.573Z,41.38
2022-12-08T07:54:27.805Z,25.67
2022-12-08T07:56:29.673Z,18.67
2022-12-08T07:58:34.669Z,18.00
2022-12-08T08:00:37.910Z,18.92
2022-12-08T08:02:40.273Z,17.38
2022-12-08T08:04:42.338Z,20.38
2022-12-08T08:06:44.525Z,17.85
2022-12-08T08:08:46.591Z,15.82
2022-12-08T08:10:48.740Z,18.03
2022-12-08T08:12:51.048Z,19.13
2022-12-08T08:14:52.844Z,18.02
2022-12-08T08:16:54.925Z,20.05
2022-12-08T08:18:57.120Z,19.48
2022-12-08T08:21:06.668Z,16.83
2022-12-08T08:23:21.225Z,18.45
2022-12-08T08:25:23.206Z,17.77
2022-12-08T08:27:26.888Z,17.83
2022-12-08T08:29:28.714Z,21.70
2022-12-08T08:31:30.667Z,17.02
2022-12-08T08:33:33.216Z,23.38
2022-12-08T08:35:35.023Z,20.05
2022-12-08T08:37:36.792Z,18.17
2022-12-08T08:39:38.942Z,19.40
2022-12-08T08:41:41.504Z,19.02
2022-12-08T08:45:45.406Z,19.63
2022-12-08T08:47:47.346Z,17.85
2022-12-08T08:49:49.521Z,21.73
2022-12-08T08:51:54.006Z,23.15
2022-12-08T08:53:56.669Z,17.95
2022-12-08T08:55:58.487Z,20.40
2022-12-08T08:58:00.273Z,18.67
2022-12-08T09:00:05.699Z,18.35
2022-12-08T09:02:15.563Z,21.40
2022-12-08T09:04:18.832Z,20.75
2022-12-08T09:06:21.682Z,30.65
2022-12-08T09:08:24.084Z,31.63
2022-12-08T09:10:27.298Z,24.42
2022-12-08T09:12:29.162Z,22.27
2022-12-08T09:14:31.527Z,24.67
2022-12-08T09:16:37.464Z,29.02
2022-12-08T09:18:43.059Z,28.40
2022-12-08T09:20:44.901Z,17.48
2022-12-08T09:22:46.732Z,25.17
2022-12-08T09:24:48.898Z,18.17
2022-12-08T09:26:50.689Z,26.45
2022-12-08T09:28:53.917Z,19.73
2022-12-08T09:30:56.110Z,19.75
2022-12-08T09:32:58.006Z,20.95
2022-12-08T09:35:00.092Z,25.55
2022-12-08T09:37:02.380Z,16.88
2022-12-08T09:39:04.385Z,36.55
2022-12-08T09:41:16.594Z,35.10
2022-12-08T09:43:44.343Z,22.17
2022-12-08T09:45:48.876Z,22.40
2022-12-08T09:48:10.363Z,25.38
2022-12-08T09:50:39.187Z,23.92
2022-12-08T09:52:52.969Z,22.58
2022-12-08T09:55:01.378Z,27.30
2022-12-08T09:57:08.305Z,23.63
2022-12-08T09:59:13.545Z,25.70
2022-12-08T10:01:16.614Z,109.07
2022-12-08T10:03:20.463Z,28.63
2022-12-08T10:05:25.925Z,24.60
2022-12-08T10:07:27.806Z,25.15
2022-12-08T10:09:41.529Z,25.15
2022-12-08T10:11:46.774Z,23.35
2022-12-08T10:14:31.188Z,28.35
2022-12-08T10:16:42.023Z,27.42
2022-12-08T10:18:43.927Z,27.20
2022-12-08T10:20:49.680Z,30.08
2022-12-08T10:23:12.114Z,31.85
2022-12-08T10:25:19.288Z,31.23
2022-12-08T10:27:22.223Z,30.75
2022-12-08T10:29:24.056Z,27.80
2022-12-08T10:31:26.337Z,32.67
2022-12-08T10:33:29.623Z,28.27
2022-12-08T10:35:47.758Z,77.57
2022-12-08T10:38:01.929Z,32.78
2022-12-08T10:40:43.847Z,34.88
2022-12-08T10:42:51.507Z,33.22
2022-12-08T10:45:15.307Z,30.50
2022-12-08T10:47:21.608Z,32.53
2022-12-08T10:49:29.405Z,33.67
2022-12-08T10:51:34.155Z,36.85
2022-12-08T10:53:46.211Z,33.03
2022-12-08T10:55:50.090Z,39.13
2022-12-08T10:57:52.282Z,34.83
2022-12-08T10:59:59.640Z,34.30
2022-12-08T11:02:03.431Z,38.88
2022-12-08T11:04:16.041Z,30.35
2022-12-08T11:06:21.578Z,30.95
2022-12-08T11:08:24.210Z,35.65
2022-12-08T11:10:33.347Z,41.22
2022-12-08T11:12:36.727Z,36.70
2022-12-08T11:14:45.548Z,38.80
2022-12-08T11:16:47.539Z,40.78
2022-12-08T11:18:57.284Z,41.65
2022-12-08T11:21:05.935Z,40.13
2022-12-08T11:23:24.377Z,42.15
2022-12-08T11:25:27.687Z,38.85
2022-12-08T11:27:32.623Z,53.13
2022-12-08T11:29:35.729Z,47.17
2022-12-08T11:31:54.972Z,46.97
2022-12-08T11:33:57.639Z,42.22
2022-12-08T11:36:06.473Z,39.47
2022-12-08T11:38:22.319Z,44.08
2022-12-08T11:40:36.240Z,51.55
2022-12-08T11:43:10.336Z,44.75
2022-12-08T11:45:19.782Z,65.45
2022-12-08T11:47:41.174Z,68.57
2022-12-08T11:52:02.988Z,45.83
2022-12-08T11:54:27.078Z,43.45
2022-12-08T11:56:37.173Z,44.33
2022-12-08T11:58:44.792Z,44.80
2022-12-08T12:00:47.067Z,50.63
2022-12-08T12:02:59.609Z,45.67
2022-12-08T12:05:23.585Z,59.70
2022-12-08T12:08:04.886Z,84.55
2022-12-08T12:10:25.378Z,48.78
2022-12-08T12:12:39.926Z,42.83
2022-12-08T12:15:09.742Z,46.90
2022-12-08T12:17:26.507Z,56.22
2022-12-08T12:19:35.391Z,108.90
2022-12-08T12:21:49.002Z,53.92
2022-12-08T12:23:59.093Z,57.50
2022-12-08T12:26:07.129Z,60.53
2022-12-08T12:28:12.839Z,67.32
2022-12-08T12:30:24.635Z,49.17
2022-12-08T12:32:39.841Z,44.20
2022-12-08T12:34:57.124Z,43.88
2022-12-08T12:37:10.335Z,47.90
2022-12-08T12:39:14.647Z,52.67
2022-12-08T12:41:27.251Z,50.72
2022-12-08T12:43:37.220Z,45.22
2022-12-08T12:45:47.493Z,44.72
2022-12-08T12:48:17.607Z,49.05
2022-12-08T12:50:34.717Z,45.60
2022-12-08T12:52:37.964Z,44.50
2022-12-08T12:54:43.509Z,50.13
2022-12-08T12:57:00.352Z,43.03
2022-12-08T12:59:42.093Z,47.55
2022-12-08T13:01:52.708Z,53.70
2022-12-08T13:04:09.771Z,44.50
2022-12-08T13:06:14.991Z,47.95
2022-12-08T13:08:24.476Z,51.35
2022-12-08T13:10:37.304Z,47.60
2022-12-08T13:12:39.221Z,61.28
2022-12-08T13:14:50.877Z,59.33
2022-12-08T13:16:56.342Z,48.80
2022-12-08T13:19:02.475Z,51.38
2022-12-08T13:21:10.582Z,46.55
2022-12-08T13:23:27.633Z,46.20
2022-12-08T13:25:40.138Z,51.65
2022-12-08T13:27:54.304Z,48.25
2022-12-08T13:30:34.204Z,43.13
2022-12-08T13:33:17.343Z,47.75
2022-12-08T13:35:18.873Z,60.97
2022-12-08T13:37:53.903Z,60.72
2022-12-08T13:40:02.787Z,83.35
2022-12-08T13:42:23.074Z,83.05
2022-12-08T13:56:24.885Z,52.70
2022-12-08T13:57:36.669Z,67.72
2022-12-08T13:59:44.239Z,69.45
2022-12-08T14:01:48.899Z,83.25
2022-12-08T14:04:31.049Z,94.45
2022-12-08T14:06:44.128Z,81.28
2022-12-08T14:09:00.310Z,74.80
2022-12-08T14:11:07.118Z,55.97
2022-12-08T14:13:12.501Z,52.40
2022-12-08T14:15:16.278Z,61.08
2022-12-08T14:17:22.523Z,71.50
2022-12-08T14:19:27.608Z,53.25
2022-12-08T14:21:34.445Z,57.60
2022-12-08T14:23:38.434Z,48.38
2022-12-08T14:25:47.381Z,52.63
2022-12-08T14:27:50.533Z,49.40
2022-12-08T14:29:56.418Z,45.30
2022-12-08T14:31:58.458Z,60.20
2022-12-08T14:34:00.670Z,56.13
2022-12-08T14:36:02.574Z,55.17
2022-12-08T14:38:06.232Z,52.92
2022-12-08T14:40:33.676Z,52.55
2022-12-08T14:42:48.266Z,57.17
2022-12-08T14:45:01.568Z,52.95
2022-12-08T14:47:09.321Z,57.88
2022-12-08T14:49:32.195Z,51.80
2022-12-08T14:51:34.053Z,53.97
2022-12-08T14:53:42.515Z,51.83
2022-12-08T14:55:48.806Z,64.25
2022-12-08T14:57:50.992Z,53.85
2022-12-08T14:59:53.701Z,56.80
2022-12-08T15:02:16.289Z,72.57
2022-12-08T15:04:24.270Z,115.82
2022-12-08T15:06:26.482Z,76.15
2022-12-08T15:08:28.569Z,128.60
2022-12-08T15:10:33.378Z,63.00
2022-12-08T15:12:35.636Z,53.58
2022-12-08T15:14:41.534Z,48.50
2022-12-08T15:16:44.236Z,50.45
2022-12-08T15:19:02.321Z,54.45
2022-12-08T15:21:09.205Z,60.83
2022-12-08T15:23:21.417Z,54.90
2022-12-08T15:25:25.102Z,56.97
2022-12-08T15:27:27.615Z,51.75
2022-12-08T15:29:31.425Z,50.05
2022-12-08T15:31:33.235Z,48.67
2022-12-08T15:33:35.444Z,53.65
2022-12-08T15:35:41.031Z,53.13
2022-12-08T15:37:43.214Z,53.90
2022-12-08T15:39:45.364Z,63.08
2022-12-08T15:41:48.205Z,51.75
2022-12-08T15:43:50.029Z,56.58
2022-12-08T15:45:59.495Z,52.00
2022-12-08T15:48:02.088Z,50.13
2022-12-08T15:50:07.301Z,51.30
2022-12-08T15:52:14.630Z,53.58
2022-12-08T15:54:18.059Z,56.30
2022-12-08T15:56:28.614Z,47.45
2022-12-08T15:58:52.893Z,54.08
2022-12-08T16:00:55.608Z,53.13
2022-12-08T16:03:28.176Z,72.55
2022-12-08T16:05:44.311Z,71.00
2022-12-08T16:07:45.956Z,106.38
2022-12-08T16:09:48.116Z,83.25
2022-12-08T16:12:10.212Z,85.28
2022-12-08T16:14:54.777Z,61.20
2022-12-08T16:16:34.923Z,59.15
2022-12-08T16:18:40.124Z,57.00
2022-12-08T16:23:19.704Z,52.83
2022-12-08T16:25:33.380Z,53.05
2022-12-08T16:30:08.910Z,57.30
2022-12-08T16:32:10.865Z,46.65
2022-12-08T16:34:12.990Z,60.95
2022-12-08T16:36:15.104Z,50.80
2022-12-08T16:38:17.110Z,52.28
2022-12-08T16:40:19.302Z,48.87
2022-12-08T16:42:39.702Z,51.58
2022-12-08T16:44:45.251Z,49.30
2022-12-08T16:46:47.092Z,45.08
2022-12-08T16:48:49.792Z,49.83
2022-12-08T16:50:51.623Z,52.63
2022-12-08T16:53:02.112Z,51.90
2022-12-08T16:55:16.279Z,54.40
2022-12-08T16:57:18.086Z,52.78
2022-12-08T16:59:20.241Z,53.65
2022-12-08T17:01:23.630Z,49.08
2022-12-08T17:03:25.499Z,51.53
2022-12-08T17:05:27.860Z,47.65
2022-12-08T17:07:29.662Z,45.17
2022-12-08T17:09:32.098Z,44.00
2022-12-08T17:11:40.846Z,53.92
2022-12-08T17:13:44.641Z,51.70
2022-12-08T17:15:46.480Z,53.70
2022-12-08T17:17:48.999Z,46.05
2022-12-08T17:19:50.793Z,47.28
2022-12-08T17:21:52.658Z,45.47
2022-12-08T17:23:55.109Z,46.88
2022-12-08T17:25:59.126Z,48.08
2022-12-08T17:28:00.919Z,48.17
2022-12-08T17:30:05.197Z,49.60
2022-12-08T17:34:34.749Z,52.70
2022-12-08T17:36:37.430Z,56.55
2022-12-08T17:38:39.579Z,47.83
2022-12-08T17:40:41.522Z,51.15
2022-12-08T17:42:43.876Z,45.58
2022-12-08T17:44:46.760Z,50.23
2022-12-08T17:46:52.913Z,46.95
2022-12-08T17:48:55.656Z,53.15
2022-12-08T17:50:57.541Z,44.72
2022-12-08T17:52:59.302Z,50.65
2022-12-08T17:55:01.563Z,49.42
2022-12-08T17:57:03.578Z,50.03
2022-12-08T17:59:05.449Z,48.40
2022-12-08T18:01:09.816Z,47.83
2022-12-08T18:03:20.274Z,51.13
2022-12-08T18:05:24.857Z,50.85
2022-12-08T18:07:27.787Z,50.85
2022-12-08T18:11:36.219Z,49.65
2022-12-08T18:13:41.973Z,52.65
2022-12-08T18:15:44.198Z,51.15
